createdAt,value
2022-11-20T00:01:23.780Z,0.95
2022-11-20T00:03:51.613Z,0.88
2022-11-20T00:06:19.166Z,1.04
2022-11-20T00:08:45.628Z,0.94
2022-11-20T00:11:16.178Z,1.10
2022-11-20T00:13:43.237Z,1.08
2022-11-20T00:16:11.728Z,0.99
2022-11-20T00:18:38.285Z,1.06
2022-11-20T00:21:04.917Z,0.96
2022-11-20T00:23:31.495Z,0.95
2022-11-20T00:25:57.856Z,0.90
2022-11-20T00:28:24.197Z,0.88
2022-11-20T00:30:50.585Z,0.85
2022-11-20T00:33:18.335Z,0.97
2022-11-20T00:35:44.661Z,1.11
2022-11-20T00:38:11.024Z,0.98
2022-11-20T00:40:37.380Z,0.90
2022-11-20T00:45:37.792Z,0.95
2022-11-20T00:48:04.270Z,1.04
2022-11-20T00:50:31.968Z,0.93
2022-11-20T00:52:58.321Z,0.93
2022-11-20T00:55:24.705Z,0.91
2022-11-20T00:57:51.070Z,1.03
2022-11-20T01:00:17.566Z,0.96
2022-11-20T01:02:43.926Z,0.99
2022-11-20T01:05:10.260Z,0.97
2022-11-20T01:07:37.994Z,0.96
2022-11-20T01:10:04.658Z,0.86
2022-11-20T01:12:30.998Z,0.93
2022-11-20T01:14:57.343Z,0.91
2022-11-20T01:17:23.869Z,0.84
2022-11-20T01:19:50.376Z,0.96
2022-11-20T01:22:16.724Z,0.99
2022-11-20T01:24:44.430Z,1.01
2022-11-20T01:27:10.772Z,1.03
2022-11-20T01:29:37.253Z,1.11
2022-11-20T01:32:03.703Z,1.10
2022-11-20T01:34:30.076Z,1.12
2022-11-20T01:36:56.429Z,1.03
2022-11-20T01:39:23.949Z,1.06
2022-11-20T01:41:52.701Z,1.00
2022-11-20T01:44:20.520Z,0.97
2022-11-20T01:46:53.201Z,0.92
2022-11-20T01:49:21.574Z,1.00
2022-11-20T01:51:51.558Z,0.92
2022-11-20T01:54:20.271Z,0.99
2022-11-20T01:56:49.042Z,1.01
2022-11-20T01:59:18.495Z,1.09
2022-11-20T02:01:45.082Z,1.31
2022-11-20T02:04:11.908Z,1.32
2022-11-20T02:06:41.676Z,1.28
2022-11-20T02:09:08.015Z,1.15
2022-11-20T02:11:34.366Z,1.25
2022-11-20T02:14:01.038Z,1.26
2022-11-20T02:16:30.075Z,1.25
2022-11-20T02:18:57.563Z,0.99
2022-11-20T02:21:27.951Z,1.06
2022-11-20T02:24:06.722Z,1.07
2022-11-20T02:26:34.856Z,0.98
2022-11-20T02:29:02.132Z,0.84
2022-11-20T02:31:28.709Z,0.91
2022-11-20T02:33:55.825Z,1.08
2022-11-20T02:36:22.685Z,1.12
2022-11-20T02:38:50.079Z,1.26
2022-11-20T02:41:17.783Z,1.15
2022-11-20T02:43:44.120Z,1.10
2022-11-20T02:46:10.483Z,1.19
2022-11-20T02:48:36.845Z,1.25
2022-11-20T02:51:03.333Z,1.32
2022-11-20T02:53:29.680Z,1.30
2022-11-20T02:55:56.184Z,1.28
2022-11-20T02:58:23.980Z,1.22
2022-11-20T03:00:50.303Z,1.33
2022-11-20T03:03:16.640Z,1.28
2022-11-20T03:05:42.970Z,1.39
2022-11-20T03:08:09.292Z,1.25
2022-11-20T03:10:35.647Z,1.35
2022-11-20T03:13:01.993Z,1.29
2022-11-20T03:15:29.703Z,1.33
2022-11-20T03:17:56.365Z,1.34
2022-11-20T03:20:23.059Z,1.35
2022-11-20T03:22:49.443Z,1.16
2022-11-20T03:25:15.820Z,1.19
2022-11-20T03:27:42.237Z,1.11
2022-11-20T03:30:09.236Z,1.23
2022-11-20T03:32:36.942Z,1.26
2022-11-20T03:35:03.441Z,1.06
2022-11-20T03:37:29.781Z,1.23
2022-11-20T03:39:56.154Z,1.30
2022-11-20T03:42:22.497Z,1.36
2022-11-20T03:44:48.857Z,1.43
2022-11-20T03:47:15.186Z,1.39
2022-11-20T03:49:42.896Z,1.42
2022-11-20T03:52:09.232Z,1.38
2022-11-20T03:54:35.577Z,1.26
2022-11-20T03:57:01.909Z,1.33
2022-11-20T03:59:28.260Z,1.34
2022-11-20T04:01:54.647Z,1.39
2022-11-20T04:04:21.047Z,1.21
2022-11-20T04:06:48.748Z,1.19
2022-11-20T04:09:15.135Z,1.28
2022-11-20T04:11:41.640Z,1.43
2022-11-20T04:14:13.423Z,1.48
2022-11-20T04:16:39.757Z,1.54
2022-11-20T04:19:07.224Z,1.55
2022-11-20T04:21:33.975Z,1.54
2022-11-20T04:24:01.747Z,1.55
2022-11-20T04:26:29.378Z,1.42
2022-11-20T04:28:56.090Z,1.25
2022-11-20T04:31:23.617Z,1.06
2022-11-20T04:33:49.990Z,1.17
2022-11-20T04:36:17.388Z,1.42
2022-11-20T04:38:44.000Z,1.27
2022-11-20T04:41:15.249Z,1.25
2022-11-20T04:43:41.601Z,1.43
2022-11-20T04:46:07.947Z,1.38
2022-11-20T04:48:35.684Z,1.40
2022-11-20T04:51:03.619Z,1.19
2022-11-20T04:53:29.932Z,1.39
2022-11-20T04:55:59.996Z,1.51
2022-11-20T04:58:27.697Z,1.50
2022-11-20T05:00:54.078Z,1.53
2022-11-20T05:03:20.415Z,1.43
2022-11-20T05:05:46.769Z,1.35
2022-11-20T05:08:13.087Z,1.23
2022-11-20T05:10:39.438Z,1.30
2022-11-20T05:13:05.776Z,1.48
2022-11-20T05:15:33.538Z,1.30
2022-11-20T05:17:59.959Z,1.39
2022-11-20T05:20:26.289Z,1.56
2022-11-20T05:22:52.612Z,1.53
2022-11-20T05:25:18.971Z,1.35
2022-11-20T05:27:45.321Z,1.34
2022-11-20T05:30:12.495Z,1.31
2022-11-20T05:32:40.201Z,1.39
2022-11-20T05:35:06.918Z,1.53
2022-11-20T05:37:33.261Z,1.52
2022-11-20T05:39:59.892Z,1.38
2022-11-20T05:42:26.234Z,1.48
2022-11-20T05:44:52.557Z,1.47
2022-11-20T05:47:18.900Z,1.56
2022-11-20T05:49:46.598Z,1.52
2022-11-20T05:52:12.937Z,1.52
2022-11-20T05:54:39.400Z,1.50
2022-11-20T05:57:05.764Z,1.48
2022-11-20T05:59:32.095Z,1.58
2022-11-20T06:01:58.473Z,1.44
2022-11-20T06:04:25.031Z,1.49
2022-11-20T06:06:52.735Z,1.53
2022-11-20T06:09:19.474Z,1.62
2022-11-20T06:11:46.032Z,1.55
2022-11-20T06:14:12.526Z,1.48
2022-11-20T06:16:38.864Z,1.71
2022-11-20T06:19:05.178Z,1.65
2022-11-20T06:21:31.559Z,1.62
2022-11-20T06:23:59.240Z,1.58
2022-11-20T06:26:26.769Z,1.62
2022-11-20T06:28:53.521Z,1.67
2022-11-20T06:31:21.155Z,1.61
2022-11-20T06:33:47.506Z,1.56
2022-11-20T06:36:14.744Z,1.52
2022-11-20T06:38:41.612Z,1.56
2022-11-20T06:41:11.472Z,1.71
2022-11-20T06:43:37.808Z,1.62
2022-11-20T06:46:04.303Z,1.57
2022-11-20T06:48:30.825Z,1.49
2022-11-20T06:50:57.528Z,1.52
2022-11-20T06:53:24.163Z,1.48
2022-11-20T06:55:52.885Z,1.57
2022-11-20T06:58:20.610Z,1.55
2022-11-20T07:00:47.010Z,1.43
2022-11-20T07:03:13.558Z,1.42
2022-11-20T07:05:39.916Z,1.38
2022-11-20T07:08:06.352Z,1.35
2022-11-20T07:10:32.858Z,1.34
2022-11-20T07:12:59.238Z,1.33
2022-11-20T07:15:26.934Z,1.35
2022-11-20T07:17:53.514Z,1.36
2022-11-20T07:20:19.856Z,1.38
2022-11-20T07:22:46.233Z,1.39
2022-11-20T07:25:12.562Z,1.45
2022-11-20T07:27:38.944Z,1.45
2022-11-20T07:30:05.833Z,1.49
2022-11-20T07:32:33.548Z,1.59
2022-11-20T07:34:59.877Z,1.58
2022-11-20T07:37:26.249Z,1.59
2022-11-20T07:39:52.589Z,1.64
2022-11-20T07:42:18.947Z,1.70
2022-11-20T07:44:45.284Z,1.77
2022-11-20T07:47:11.691Z,1.74
2022-11-20T07:49:39.397Z,1.74
2022-11-20T07:52:05.778Z,1.82
2022-11-20T07:54:32.167Z,1.72
2022-11-20T07:56:58.594Z,1.78
2022-11-20T07:59:24.969Z,1.92
2022-11-20T08:01:51.309Z,1.89
2022-11-20T08:04:17.737Z,2.10
2022-11-20T08:06:45.448Z,1.98
2022-11-20T08:09:11.897Z,2.04
2022-11-20T08:11:38.247Z,1.91
2022-11-20T08:14:04.614Z,1.80
2022-11-20T08:16:30.961Z,1.78
2022-11-20T08:18:57.353Z,1.89
2022-11-20T08:21:23.739Z,2.04
2022-11-20T08:23:51.456Z,2.16
2022-11-20T08:26:17.783Z,2.22
2022-11-20T08:28:44.221Z,2.10
2022-11-20T08:31:10.609Z,2.03
2022-11-20T08:33:37.206Z,2.00
2022-11-20T08:36:03.987Z,2.07
2022-11-20T08:38:30.820Z,2.26
2022-11-20T08:40:58.943Z,2.22
2022-11-20T08:43:25.298Z,2.15
2022-11-20T08:45:51.626Z,2.05
2022-11-20T08:48:17.963Z,1.99
2022-11-20T08:50:44.295Z,1.94
2022-11-20T08:53:10.644Z,2.00
2022-11-20T08:55:36.993Z,1.97
2022-11-20T08:58:05.596Z,1.95
2022-11-20T09:00:32.412Z,1.95
2022-11-20T09:02:58.926Z,1.93
2022-11-20T09:05:25.329Z,1.89
2022-11-20T09:07:51.690Z,1.92
2022-11-20T09:10:25.430Z,1.90
2022-11-20T09:12:52.024Z,1.95
2022-11-20T09:15:20.222Z,2.02
2022-11-20T09:17:51.167Z,2.14
2022-11-20T09:20:17.511Z,2.05
2022-11-20T09:22:43.855Z,2.02
2022-11-20T09:25:10.222Z,2.09
2022-11-20T09:27:36.569Z,2.07
2022-11-20T09:30:03.058Z,2.13
2022-11-20T09:32:30.780Z,2.08
2022-11-20T09:34:57.158Z,2.13
2022-11-20T09:37:23.704Z,2.17
2022-11-20T09:39:50.086Z,2.27
2022-11-20T09:42:28.344Z,2.20
2022-11-20T09:45:15.798Z,2.15
2022-11-20T09:47:53.751Z,2.32
2022-11-20T09:50:24.977Z,2.32
2022-11-20T09:52:56.058Z,2.37
2022-11-20T09:55:22.654Z,2.29
2022-11-20T09:57:51.910Z,2.45
2022-11-20T10:00:18.590Z,2.47
2022-11-20T10:02:49.549Z,2.61
2022-11-20T10:05:18.912Z,2.72
2022-11-20T10:07:49.283Z,2.78
2022-11-20T10:10:16.329Z,2.89
2022-11-20T10:12:50.626Z,2.89
2022-11-20T10:15:25.566Z,2.85
2022-11-20T10:17:59.796Z,2.87
2022-11-20T10:20:30.478Z,2.96
2022-11-20T10:23:12.157Z,3.03
2022-11-20T10:25:39.725Z,2.99
2022-11-20T10:28:18.856Z,3.02
2022-11-20T10:30:46.785Z,2.97
2022-11-20T10:33:17.814Z,3.08
2022-11-20T10:35:45.810Z,3.03
2022-11-20T10:38:15.760Z,3.04
2022-11-20T10:40:44.500Z,3.04
2022-11-20T10:43:13.218Z,3.13
2022-11-20T10:45:49.354Z,3.17
2022-11-20T10:48:20.678Z,3.44
2022-11-20T10:50:55.892Z,3.65
2022-11-20T10:53:30.257Z,3.72
2022-11-20T10:55:58.790Z,3.73
2022-11-20T10:58:34.473Z,3.95
2022-11-20T11:01:04.344Z,3.98
2022-11-20T11:03:32.456Z,4.13
2022-11-20T11:06:03.264Z,4.21
2022-11-20T11:08:33.589Z,4.28
2022-11-20T11:11:01.492Z,4.39
2022-11-20T11:13:28.434Z,4.39
2022-11-20T11:15:55.395Z,4.41
2022-11-20T11:18:25.532Z,4.46
2022-11-20T11:20:54.210Z,4.43
2022-11-20T11:23:29.105Z,4.59
2022-11-20T11:25:57.877Z,4.60
2022-11-20T11:28:25.616Z,4.68
2022-11-20T11:30:52.094Z,4.82
2022-11-20T11:33:20.300Z,4.77
2022-11-20T11:35:51.392Z,4.76
2022-11-20T11:38:22.105Z,4.79
2022-11-20T11:40:48.477Z,4.77
2022-11-20T11:43:20.418Z,4.77
2022-11-20T11:45:52.738Z,4.73
2022-11-20T11:48:19.108Z,4.72
2022-11-20T11:50:49.282Z,4.69
2022-11-20T11:53:17.487Z,4.58
2022-11-20T11:55:47.176Z,4.62
2022-11-20T11:58:18.563Z,4.80
2022-11-20T12:00:48.670Z,4.87
2022-11-20T12:03:16.954Z,4.98
2022-11-20T12:05:44.639Z,5.05
2022-11-20T12:08:14.799Z,5.21
2022-11-20T12:10:44.932Z,5.20
2022-11-20T12:13:18.850Z,5.22
2022-11-20T12:15:46.037Z,5.26
2022-11-20T12:18:17.988Z,5.32
2022-11-20T12:20:49.142Z,5.32
2022-11-20T12:23:19.234Z,5.44
2022-11-20T12:25:48.930Z,5.36
2022-11-20T12:28:36.273Z,5.39
2022-11-20T12:31:13.786Z,5.42
2022-11-20T12:33:55.630Z,5.41
2022-11-20T12:36:28.705Z,5.33
2022-11-20T12:39:00.323Z,5.30
2022-11-20T12:41:38.437Z,5.32
2022-11-20T12:44:11.931Z,5.39
2022-11-20T12:46:43.253Z,5.49
2022-11-20T12:49:26.876Z,5.41
2022-11-20T12:52:01.826Z,5.48
2022-11-20T12:54:41.498Z,5.51
2022-11-20T12:57:10.598Z,5.54
2022-11-20T12:59:46.114Z,5.52
2022-11-20T13:02:19.874Z,5.59
2022-11-20T13:04:57.084Z,5.56
2022-11-20T13:07:25.633Z,5.58
2022-11-20T13:09:52.308Z,5.62
2022-11-20T13:12:21.256Z,5.57
2022-11-20T13:14:51.450Z,5.65
2022-11-20T13:17:22.176Z,5.66
2022-11-20T13:19:50.372Z,5.66
2022-11-20T13:22:24.841Z,5.63
2022-11-20T13:24:51.681Z,5.70
2022-11-20T13:27:19.584Z,5.71
2022-11-20T13:29:46.894Z,5.70
2022-11-20T13:32:15.272Z,5.60
2022-11-20T13:34:53.139Z,5.56
2022-11-20T13:37:25.986Z,5.40
2022-11-20T13:39:52.318Z,5.34
2022-11-20T13:42:25.907Z,5.21
2022-11-20T13:44:54.628Z,5.21
2022-11-20T13:47:21.460Z,5.15
2022-11-20T13:49:47.854Z,5.09
2022-11-20T13:52:32.426Z,4.97
2022-11-20T13:55:03.460Z,4.96
2022-11-20T13:57:41.526Z,4.90
2022-11-20T14:00:11.809Z,4.91
2022-11-20T14:02:38.391Z,4.89
2022-11-20T14:05:05.701Z,4.94
2022-11-20T14:07:37.942Z,4.82
2022-11-20T14:10:04.780Z,5.00
2022-11-20T14:12:31.864Z,4.99
2022-11-20T14:14:58.918Z,4.99
2022-11-20T14:17:30.766Z,4.93
2022-11-20T14:19:59.745Z,4.96
2022-11-20T14:22:26.841Z,5.07
2022-11-20T14:25:04.320Z,4.95
2022-11-20T14:27:33.707Z,5.01
2022-11-20T14:30:01.670Z,4.93
2022-11-20T14:32:29.265Z,4.95
2022-11-20T14:34:57.373Z,4.93
2022-11-20T14:37:24.947Z,4.76
2022-11-20T14:39:52.009Z,4.65
2022-11-20T14:42:21.053Z,4.55
2022-11-20T14:44:48.571Z,4.58
2022-11-20T14:47:18.155Z,4.65
2022-11-20T14:49:44.823Z,4.53
2022-11-20T14:52:13.588Z,4.49
2022-11-20T14:54:44.417Z,4.45
2022-11-20T14:57:21.831Z,4.41
2022-11-20T14:59:48.195Z,4.45
2022-11-20T15:02:14.658Z,4.34
2022-11-20T15:04:45.413Z,4.26
2022-11-20T15:07:11.799Z,4.33
2022-11-20T15:09:38.234Z,4.40
2022-11-20T15:12:04.822Z,4.35
2022-11-20T15:14:32.599Z,4.34
2022-11-20T15:16:59.886Z,4.31
2022-11-20T15:19:27.276Z,4.28
2022-11-20T15:21:53.654Z,4.26
2022-11-20T15:24:20.428Z,4.44
2022-11-20T15:26:46.826Z,4.44
2022-11-20T15:29:13.919Z,4.47
2022-11-20T15:31:41.629Z,4.45
2022-11-20T15:34:11.256Z,4.53
2022-11-20T15:36:37.599Z,4.53
2022-11-20T15:39:03.968Z,4.45
2022-11-20T15:41:30.340Z,4.59
2022-11-20T15:43:56.705Z,4.47
2022-11-20T15:46:26.782Z,4.47
2022-11-20T15:48:55.605Z,4.47
2022-11-20T15:51:25.809Z,4.53
2022-11-20T15:53:52.154Z,4.35
2022-11-20T15:56:18.497Z,4.47
2022-11-20T15:58:44.857Z,4.32
2022-11-20T16:01:11.474Z,4.30
2022-11-20T16:03:37.826Z,4.29
2022-11-20T16:06:05.793Z,4.25
2022-11-20T16:08:32.197Z,4.32
2022-11-20T16:10:58.556Z,4.24
2022-11-20T16:13:24.902Z,4.19
2022-11-20T16:15:53.428Z,4.20
2022-11-20T16:18:20.561Z,4.15
2022-11-20T16:20:47.438Z,4.11
2022-11-20T16:23:15.153Z,4.09
2022-11-20T16:25:41.548Z,4.12
2022-11-20T16:28:07.889Z,4.08
2022-11-20T16:30:34.261Z,4.05
2022-11-20T16:33:00.608Z,4.00
2022-11-20T16:35:27.115Z,3.98
2022-11-20T16:37:53.439Z,4.02
2022-11-20T16:40:21.152Z,4.24
2022-11-20T16:42:47.470Z,4.15
2022-11-20T16:45:13.820Z,4.05
2022-11-20T16:47:40.246Z,4.02
2022-11-20T16:50:07.062Z,4.14
2022-11-20T16:52:33.401Z,4.08
2022-11-20T16:54:59.824Z,4.01
2022-11-20T16:57:29.107Z,3.97
2022-11-20T17:00:00.268Z,3.84
2022-11-20T17:02:28.368Z,3.83
2022-11-20T17:04:54.852Z,3.91
2022-11-20T17:07:21.241Z,3.96
2022-11-20T17:09:48.459Z,3.86
2022-11-20T17:12:14.792Z,3.99
2022-11-20T17:14:42.505Z,4.03
2022-11-20T17:17:08.890Z,3.97
2022-11-20T17:19:35.230Z,3.90
2022-11-20T17:22:01.588Z,3.79
2022-11-20T17:24:31.866Z,3.80
2022-11-20T17:26:58.697Z,3.76
2022-11-20T17:29:25.038Z,3.78
2022-11-20T17:31:53.734Z,3.89
2022-11-20T17:34:20.112Z,3.85
2022-11-20T17:36:46.493Z,4.05
2022-11-20T17:39:13.445Z,3.83
2022-11-20T17:41:39.871Z,3.78
2022-11-20T17:44:06.258Z,3.85
2022-11-20T17:46:33.417Z,3.78
2022-11-20T17:49:01.416Z,3.96
2022-11-20T17:51:28.622Z,3.73
2022-11-20T17:53:56.875Z,3.83
2022-11-20T17:56:23.368Z,3.72
2022-11-20T17:58:49.750Z,3.64
2022-11-20T18:01:16.964Z,3.63
2022-11-20T18:03:43.374Z,3.64
2022-11-20T18:06:12.322Z,3.62
2022-11-20T18:08:38.676Z,3.53
2022-11-20T18:11:11.873Z,3.54
2022-11-20T18:13:38.482Z,3.51
2022-11-20T18:16:06.683Z,3.44
2022-11-20T18:18:33.017Z,3.37
2022-11-20T18:20:59.425Z,3.30
2022-11-20T18:23:27.125Z,3.28
2022-11-20T18:25:53.503Z,3.31
2022-11-20T18:28:19.849Z,3.27
2022-11-20T18:30:46.192Z,3.20
2022-11-20T18:33:12.561Z,3.18
2022-11-20T18:35:38.965Z,3.24
2022-11-20T18:38:05.367Z,3.12
2022-11-20T18:40:34.292Z,3.01
2022-11-20T18:43:00.666Z,2.99
2022-11-20T18:45:27.016Z,3.01
2022-11-20T18:47:53.386Z,2.91
2022-11-20T18:50:19.729Z,2.74
2022-11-20T18:52:46.110Z,2.78
2022-11-20T18:55:12.478Z,2.68
2022-11-20T18:57:40.220Z,2.61
2022-11-20T19:00:09.697Z,2.67
2022-11-20T19:02:41.787Z,2.67
2022-11-20T19:05:09.331Z,2.51
2022-11-20T19:07:35.790Z,2.44
2022-11-20T19:10:04.022Z,2.44
2022-11-20T19:12:30.964Z,2.45
2022-11-20T19:14:58.719Z,2.38
2022-11-20T19:17:25.120Z,2.29
2022-11-20T19:19:51.463Z,2.32
2022-11-20T19:22:17.850Z,2.23
2022-11-20T19:24:44.224Z,2.23
2022-11-20T19:27:10.584Z,2.21
2022-11-20T19:29:36.970Z,2.22
2022-11-20T19:32:04.868Z,2.31
2022-11-20T19:34:31.317Z,2.19
2022-11-20T19:36:57.708Z,2.15
2022-11-20T19:39:24.339Z,2.14
2022-11-20T19:41:50.882Z,2.22
2022-11-20T19:44:17.242Z,2.19
2022-11-20T19:46:44.033Z,2.30
2022-11-20T19:49:12.718Z,2.16
2022-11-20T19:51:39.598Z,2.13
2022-11-20T19:54:06.423Z,2.08
2022-11-20T19:56:33.247Z,2.08
2022-11-20T19:58:59.688Z,2.05
2022-11-20T20:01:27.289Z,2.06
2022-11-20T20:03:53.929Z,2.03
2022-11-20T20:06:22.684Z,2.00
2022-11-20T20:08:54.166Z,2.06
2022-11-20T20:11:21.933Z,2.01
2022-11-20T20:13:48.418Z,2.05
2022-11-20T20:16:15.796Z,2.05
2022-11-20T20:18:42.511Z,2.08
2022-11-20T20:21:09.651Z,2.16
2022-11-20T20:23:37.783Z,2.10
2022-11-20T20:26:05.357Z,2.13
2022-11-20T20:28:32.111Z,2.18
2022-11-20T20:31:05.282Z,2.28
2022-11-20T20:33:31.661Z,2.32
2022-11-20T20:35:58.675Z,2.33
2022-11-20T20:38:25.094Z,2.40
2022-11-20T20:40:52.863Z,2.45
2022-11-20T20:43:19.234Z,2.47
2022-11-20T20:45:46.018Z,2.48
2022-11-20T20:48:12.406Z,2.50
2022-11-20T20:50:38.818Z,2.53
2022-11-20T20:53:05.275Z,2.47
2022-11-20T20:55:31.613Z,2.52
2022-11-20T20:57:59.353Z,2.52
2022-11-20T21:00:25.702Z,2.51
2022-11-20T21:02:52.078Z,2.48
2022-11-20T21:05:18.530Z,2.52
2022-11-20T21:07:44.872Z,2.56
2022-11-20T21:10:11.362Z,2.55
2022-11-20T21:12:37.698Z,2.52
2022-11-20T21:15:06.201Z,2.53
2022-11-20T21:17:32.552Z,2.53
2022-11-20T21:19:58.930Z,2.66
2022-11-20T21:22:25.265Z,2.71
2022-11-20T21:24:51.616Z,2.78
2022-11-20T21:27:17.947Z,2.74
2022-11-20T21:29:44.288Z,2.92
2022-11-20T21:32:12.003Z,2.99
2022-11-20T21:34:38.355Z,2.93
2022-11-20T21:37:04.691Z,3.14
2022-11-20T21:39:31.194Z,3.22
2022-11-20T21:41:57.523Z,3.21
2022-11-20T21:44:31.030Z,3.22
2022-11-20T21:46:58.096Z,3.30
2022-11-20T21:49:26.156Z,3.29
2022-11-20T21:51:52.710Z,3.31
2022-11-20T21:54:19.080Z,3.27
2022-11-20T21:56:45.416Z,3.32
2022-11-20T21:59:12.414Z,3.35
2022-11-20T22:01:38.828Z,3.31
2022-11-20T22:04:05.329Z,3.30
2022-11-20T22:06:33.947Z,3.48
2022-11-20T22:09:00.647Z,3.63
2022-11-20T22:11:26.979Z,3.72
2022-11-20T22:13:53.331Z,3.73
2022-11-20T22:16:19.731Z,3.89
2022-11-20T22:18:46.987Z,3.95
2022-11-20T22:21:13.908Z,3.93
2022-11-20T22:23:41.712Z,3.96
2022-11-20T22:26:09.227Z,3.98
2022-11-20T22:28:35.938Z,4.01
2022-11-20T22:31:03.067Z,4.04
2022-11-20T22:33:29.902Z,4.01
2022-11-20T22:36:00.109Z,4.01
2022-11-20T22:38:29.456Z,4.03
2022-11-20T22:41:02.357Z,4.03
2022-11-20T22:43:28.775Z,4.01
2022-11-20T22:45:59.511Z,4.00
2022-11-20T22:48:25.837Z,3.95
2022-11-20T22:50:52.184Z,3.89
2022-11-20T22:53:18.628Z,3.84
2022-11-20T22:55:48.765Z,3.87
2022-11-20T22:58:16.470Z,3.89
2022-11-20T23:00:42.839Z,4.05
2022-11-20T23:03:09.222Z,4.11
2022-11-20T23:05:35.646Z,4.01
2022-11-20T23:08:01.985Z,3.98
2022-11-20T23:10:28.340Z,4.07
2022-11-20T23:12:54.685Z,3.94
2022-11-20T23:15:22.454Z,3.83
2022-11-20T23:17:48.805Z,3.84
2022-11-20T23:20:15.233Z,4.00
2022-11-20T23:22:41.565Z,3.90
2022-11-20T23:25:08.599Z,3.97
2022-11-20T23:27:34.934Z,3.98
2022-11-20T23:30:01.333Z,4.03
2022-11-20T23:32:29.035Z,3.96
2022-11-20T23:34:55.372Z,4.02
2022-11-20T23:37:21.860Z,4.03
2022-11-20T23:39:48.225Z,4.06
2022-11-20T23:42:14.696Z,4.00
2022-11-20T23:44:41.017Z,4.01
2022-11-20T23:47:07.705Z,3.98
2022-11-20T23:49:35.408Z,3.95
2022-11-20T23:52:01.744Z,3.89
2022-11-20T23:54:28.407Z,3.87
2022-11-20T23:56:54.961Z,3.88
2022-11-20T23:59:21.312Z,3.91
